sensor_id;sensor_type;location;lat;lon;timestamp;pressure;altitude;pressure_sealevel;temperature;humidity
58471;BME280;44258;51.288;12.068;2023-01-27T00:00:20;101027.59;;;1.05;67.90
58471;BME280;44258;51.288;12.068;2023-01-27T00:02:47;101032.88;;;1.05;67.52
58471;BME280;44258;51.288;12.068;2023-01-27T00:05:14;101027.66;;;0.92;67.67
58471;BME280;44258;51.288;12.068;2023-01-27T00:07:41;101025.03;;;0.88;68.01
58471;BME280;44258;51.288;12.068;2023-01-27T00:10:12;101013.44;;;1.07;67.84
58471;BME280;44258;51.288;12.068;2023-01-27T00:12:40;101014.22;;;1.22;67.66
58471;BME280;44258;51.288;12.068;2023-01-27T00:15:29;101007.97;;;1.35;67.25
58471;BME280;44258;51.288;12.068;2023-01-27T00:17:56;101014.19;;;1.26;67.41
58471;BME280;44258;51.288;12.068;2023-01-27T00:20:23;101009.00;;;1.09;66.97
58471;BME280;44258;51.288;12.068;2023-01-27T00:23:03;101014.28;;;1.14;67.54
58471;BME280;44258;51.288;12.068;2023-01-27T00:25:47;101017.78;;;1.18;67.08
58471;BME280;44258;51.288;12.068;2023-01-27T00:28:16;101022.41;;;0.76;67.90
58471;BME280;44258;51.288;12.068;2023-01-27T00:30:48;101012.91;;;0.31;69.98
58471;BME280;44258;51.288;12.068;2023-01-27T00:33:14;101008.34;;;0.70;69.33
58471;BME280;44258;51.288;12.068;2023-01-27T00:36:03;101013.72;;;0.43;69.41
58471;BME280;44258;51.288;12.068;2023-01-27T00:38:31;101018.09;;;0.59;68.83
58471;BME280;44258;51.288;12.068;2023-01-27T00:40:58;101018.91;;;0.75;68.79
58471;BME280;44258;51.288;12.068;2023-01-27T00:43:44;101013.84;;;-0.00;71.20
58471;BME280;44258;51.288;12.068;2023-01-27T00:46:11;101013.78;;;0.34;70.21
58471;BME280;44258;51.288;12.068;2023-01-27T00:48:37;101013.72;;;0.52;70.00
58471;BME280;44258;51.288;12.068;2023-01-27T00:51:04;101012.78;;;0.62;69.35
58471;BME280;44258;51.288;12.068;2023-01-27T00:53:31;101005.66;;;0.74;69.30
58471;BME280;44258;51.288;12.068;2023-01-27T00:55:57;101011.84;;;0.82;69.30
58471;BME280;44258;51.288;12.068;2023-01-27T00:58:24;101009.19;;;0.82;68.55
58471;BME280;44258;51.288;12.068;2023-01-27T01:00:53;101008.28;;;0.81;68.79
58471;BME280;44258;51.288;12.068;2023-01-27T01:03:20;101017.13;;;0.80;68.89
58471;BME280;44258;51.288;12.068;2023-01-27T01:05:47;101006.53;;;0.76;69.28
58471;BME280;44258;51.288;12.068;2023-01-27T01:08:13;101004.00;;;0.53;69.77
58471;BME280;44258;51.288;12.068;2023-01-27T01:10:40;101003.97;;;0.62;69.36
58471;BME280;44258;51.288;12.068;2023-01-27T01:13:06;101014.56;;;0.60;69.28
58471;BME280;44258;51.288;12.068;2023-01-27T01:15:36;101006.69;;;0.39;69.92
58471;BME280;44258;51.288;12.068;2023-01-27T01:18:05;101013.75;;;0.37;70.11
58471;BME280;44258;51.288;12.068;2023-01-27T01:20:35;101020.88;;;0.08;71.01
58471;BME280;44258;51.288;12.068;2023-01-27T01:23:01;101017.34;;;0.16;71.62
58471;BME280;44258;51.288;12.068;2023-01-27T01:25:28;101012.97;;;0.04;71.98
58471;BME280;44258;51.288;12.068;2023-01-27T01:27:54;101014.66;;;0.33;71.28
58471;BME280;44258;51.288;12.068;2023-01-27T01:30:21;101018.22;;;0.18;70.94
58471;BME280;44258;51.288;12.068;2023-01-27T01:32:50;101012.97;;;0.07;71.45
58471;BME280;44258;51.288;12.068;2023-01-27T01:35:18;101020.84;;;0.28;71.16
58471;BME280;44258;51.288;12.068;2023-01-27T01:37:45;101022.69;;;-0.52;73.75
58471;BME280;44258;51.288;12.068;2023-01-27T01:40:11;101027.09;;;-0.56;74.21
58471;BME280;44258;51.288;12.068;2023-01-27T01:42:47;101018.31;;;-0.42;73.78
58471;BME280;44258;51.288;12.068;2023-01-27T01:45:43;101023.56;;;-0.81;74.88
58471;BME280;44258;51.288;12.068;2023-01-27T01:48:13;101034.13;;;-0.70;75.08
58471;BME280;44258;51.288;12.068;2023-01-27T01:50:48;101027.09;;;-0.42;74.05
58471;BME280;44258;51.288;12.068;2023-01-27T01:53:16;101029.72;;;0.03;72.57
58471;BME280;44258;51.288;12.068;2023-01-27T01:55:43;101032.41;;;-0.16;72.86
58471;BME280;44258;51.288;12.068;2023-01-27T01:58:11;101030.63;;;-0.35;73.59
58471;BME280;44258;51.288;12.068;2023-01-27T02:00:39;101038.47;;;-1.03;74.93
58471;BME280;44258;51.288;12.068;2023-01-27T02:03:06;101036.75;;;-0.82;76.02
58471;BME280;44258;51.288;12.068;2023-01-27T02:05:35;101045.03;;;-2.00;79.52
58471;BME280;44258;51.288;12.068;2023-01-27T02:08:08;101030.28;;;-1.63;78.54
58471;BME280;44258;51.288;12.068;2023-01-27T02:10:37;101031.41;;;-1.07;77.42
58471;BME280;44258;51.288;12.068;2023-01-27T02:13:03;101036.63;;;-1.27;77.59
58471;BME280;44258;51.288;12.068;2023-01-27T02:15:30;101029.69;;;-0.77;76.15
58471;BME280;44258;51.288;12.068;2023-01-27T02:17:59;101028.88;;;-0.42;74.55
58471;BME280;44258;51.288;12.068;2023-01-27T02:20:28;101023.59;;;-0.48;73.60
58471;BME280;44258;51.288;12.068;2023-01-27T02:23:03;101013.88;;;-0.76;74.57
58471;BME280;44258;51.288;12.068;2023-01-27T02:25:44;101013.00;;;-0.76;75.37
58471;BME280;44258;51.288;12.068;2023-01-27T02:28:12;101017.34;;;-0.97;75.96
58471;BME280;44258;51.288;12.068;2023-01-27T02:30:39;101013.88;;;-0.56;74.98
58471;BME280;44258;51.288;12.068;2023-01-27T02:33:09;101024.44;;;-0.68;74.87
58471;BME280;44258;51.288;12.068;2023-01-27T02:35:41;101022.69;;;-0.54;74.64
58471;BME280;44258;51.288;12.068;2023-01-27T02:38:10;101022.69;;;-0.15;73.98
58471;BME280;44258;51.288;12.068;2023-01-27T02:40:40;101020.06;;;-0.35;73.92
58471;BME280;44258;51.288;12.068;2023-01-27T02:43:08;101027.09;;;-0.19;73.71
58471;BME280;44258;51.288;12.068;2023-01-27T02:45:35;101025.31;;;-0.63;75.10
58471;BME280;44258;51.288;12.068;2023-01-27T02:48:02;101030.63;;;-0.35;74.05
58471;BME280;44258;51.288;12.068;2023-01-27T02:50:28;101029.72;;;-0.74;75.54
58471;BME280;44258;51.288;12.068;2023-01-27T02:52:55;101028.84;;;-0.47;75.09
58471;BME280;44258;51.288;12.068;2023-01-27T02:55:21;101032.31;;;-0.96;76.97
58471;BME280;44258;51.288;12.068;2023-01-27T02:57:49;101031.50;;;-0.29;74.73
58471;BME280;44258;51.288;12.068;2023-01-27T03:00:16;101036.66;;;-1.13;76.93
58471;BME280;44258;51.288;12.068;2023-01-27T03:02:43;101055.25;;;-0.76;76.60
58471;BME280;44258;51.288;12.068;2023-01-27T03:05:09;101057.03;;;-0.58;75.71
58471;BME280;44258;51.288;12.068;2023-01-27T03:07:36;101057.03;;;-0.54;75.24
58471;BME280;44258;51.288;12.068;2023-01-27T03:10:03;101060.50;;;-0.78;76.01
58471;BME280;44258;51.288;12.068;2023-01-27T03:12:30;101051.75;;;-0.41;74.97
58471;BME280;44258;51.288;12.068;2023-01-27T03:15:00;101056.19;;;-0.16;74.01
58471;BME280;44258;51.288;12.068;2023-01-27T03:17:44;101059.69;;;-0.06;73.14
58471;BME280;44258;51.288;12.068;2023-01-27T03:20:29;101061.44;;;-0.57;74.84
58471;BME280;44258;51.288;12.068;2023-01-27T03:22:56;101069.34;;;-0.51;74.54
58471;BME280;44258;51.288;12.068;2023-01-27T03:25:22;101067.59;;;-0.61;75.40
58471;BME280;44258;51.288;12.068;2023-01-27T03:27:49;101068.50;;;-0.44;74.67
58471;BME280;44258;51.288;12.068;2023-01-27T03:30:18;101066.75;;;-0.42;74.65
58471;BME280;44258;51.288;12.068;2023-01-27T03:32:44;101071.03;;;-0.95;76.51
58471;BME280;44258;51.288;12.068;2023-01-27T03:35:12;101073.75;;;-0.68;75.96
58471;BME280;44258;51.288;12.068;2023-01-27T03:37:40;101071.16;;;-0.18;74.44
58471;BME280;44258;51.288;12.068;2023-01-27T03:40:24;101076.41;;;0.21;72.71
58471;BME280;44258;51.288;12.068;2023-01-27T03:43:09;101079.97;;;0.03;72.81
58471;BME280;44258;51.288;12.068;2023-01-27T03:45:54;101072.03;;;-0.23;73.63
58471;BME280;44258;51.288;12.068;2023-01-27T03:48:39;101081.69;;;0.16;72.06
58471;BME280;44258;51.288;12.068;2023-01-27T03:51:10;101073.75;;;0.16;71.62
58471;BME280;44258;51.288;12.068;2023-01-27T03:53:36;101075.50;;;0.28;71.41
58471;BME280;44258;51.288;12.068;2023-01-27T03:56:03;101072.81;;;0.45;70.82
58471;BME280;44258;51.288;12.068;2023-01-27T03:58:34;101079.91;;;0.41;70.85
58471;BME280;44258;51.288;12.068;2023-01-27T04:01:04;101074.63;;;0.27;71.50
58471;BME280;44258;51.288;12.068;2023-01-27T04:03:33;101079.94;;;-0.08;72.07
58471;BME280;44258;51.288;12.068;2023-01-27T04:06:19;101080.84;;;-0.32;73.83
58471;BME280;44258;51.288;12.068;2023-01-27T04:09:05;101081.69;;;-0.47;74.60
58471;BME280;44258;51.288;12.068;2023-01-27T04:11:32;101084.28;;;-0.76;75.95
58471;BME280;44258;51.288;12.068;2023-01-27T04:14:16;101094.94;;;-0.32;74.33
58471;BME280;44258;51.288;12.068;2023-01-27T04:16:48;101084.38;;;-0.07;73.54
58471;BME280;44258;51.288;12.068;2023-01-27T04:19:15;101086.13;;;-0.07;73.25
58471;BME280;44258;51.288;12.068;2023-01-27T04:21:42;101081.72;;;-0.48;74.56
58471;BME280;44258;51.288;12.068;2023-01-27T04:24:10;101087.00;;;0.05;73.51
58471;BME280;44258;51.288;12.068;2023-01-27T04:26:48;101087.00;;;0.21;72.76
58471;BME280;44258;51.288;12.068;2023-01-27T04:29:15;101092.25;;;-0.53;75.27
58471;BME280;44258;51.288;12.068;2023-01-27T04:31:42;101089.59;;;-0.70;75.86
58471;BME280;44258;51.288;12.068;2023-01-27T04:34:11;101084.38;;;-0.15;74.24
58471;BME280;44258;51.288;12.068;2023-01-27T04:36:37;101094.03;;;0.02;72.97
58471;BME280;44258;51.288;12.068;2023-01-27T04:39:04;101090.53;;;0.21;72.47
58471;BME280;44258;51.288;12.068;2023-01-27T04:41:30;101095.81;;;-0.13;73.37
58471;BME280;44258;51.288;12.068;2023-01-27T04:43:57;101097.59;;;0.15;72.69
58471;BME280;44258;51.288;12.068;2023-01-27T04:46:24;101098.47;;;-0.03;73.05
58471;BME280;44258;51.288;12.068;2023-01-27T04:48:50;101101.09;;;0.09;72.16
58471;BME280;44258;51.288;12.068;2023-01-27T04:51:18;101096.72;;;0.05;72.52
58471;BME280;44258;51.288;12.068;2023-01-27T04:53:44;101093.16;;;-0.14;73.21
58471;BME280;44258;51.288;12.068;2023-01-27T04:56:19;101103.75;;;-0.17;73.65
58471;BME280;44258;51.288;12.068;2023-01-27T04:58:46;101105.50;;;-0.32;74.42
58471;BME280;44258;51.288;12.068;2023-01-27T05:01:13;101099.25;;;-0.69;74.80
58471;BME280;44258;51.288;12.068;2023-01-27T05:03:39;101101.03;;;-0.59;75.39
58471;BME280;44258;51.288;12.068;2023-01-27T05:06:07;101102.84;;;-0.04;73.44
58471;BME280;44258;51.288;12.068;2023-01-27T05:08:36;101098.47;;;-0.30;74.45
58471;BME280;44258;51.288;12.068;2023-01-27T05:11:03;101102.84;;;-0.27;74.56
58471;BME280;44258;51.288;12.068;2023-01-27T05:13:29;101098.41;;;-0.63;74.99
58471;BME280;44258;51.288;12.068;2023-01-27T05:16:04;101101.09;;;-0.33;74.92
58471;BME280;44258;51.288;12.068;2023-01-27T05:18:30;101109.91;;;-0.51;75.50
58471;BME280;44258;51.288;12.068;2023-01-27T05:20:57;101115.19;;;-0.11;73.68
58471;BME280;44258;51.288;12.068;2023-01-27T05:23:24;101122.25;;;0.09;73.22
58471;BME280;44258;51.288;12.068;2023-01-27T05:26:07;101113.34;;;-0.61;76.01
58471;BME280;44258;51.288;12.068;2023-01-27T05:28:36;101113.44;;;-0.13;74.43
58471;BME280;44258;51.288;12.068;2023-01-27T05:31:05;101115.22;;;-0.14;74.19
58471;BME280;44258;51.288;12.068;2023-01-27T05:33:32;101110.78;;;0.22;72.47
58471;BME280;44258;51.288;12.068;2023-01-27T05:35:59;101114.31;;;0.24;72.84
58471;BME280;44258;51.288;12.068;2023-01-27T05:38:30;101116.09;;;-0.24;74.48
58471;BME280;44258;51.288;12.068;2023-01-27T05:40:57;101116.97;;;0.03;73.04
58471;BME280;44258;51.288;12.068;2023-01-27T05:43:27;101114.31;;;0.10;72.58
58471;BME280;44258;51.288;12.068;2023-01-27T05:46:00;101113.44;;;0.19;72.79
58471;BME280;44258;51.288;12.068;2023-01-27T05:48:28;101115.19;;;0.14;72.78
58471;BME280;44258;51.288;12.068;2023-01-27T05:50:55;101117.81;;;0.40;72.04
58471;BME280;44258;51.288;12.068;2023-01-27T05:53:24;101113.38;;;0.56;71.58
58471;BME280;44258;51.288;12.068;2023-01-27T05:55:51;101116.91;;;0.52;71.35
58471;BME280;44258;51.288;12.068;2023-01-27T05:58:18;101123.09;;;0.40;71.61
58471;BME280;44258;51.288;12.068;2023-01-27T06:00:46;101132.75;;;0.64;70.94
58471;BME280;44258;51.288;12.068;2023-01-27T06:03:13;101128.38;;;0.48;71.33
58471;BME280;44258;51.288;12.068;2023-01-27T06:05:49;101135.47;;;0.40;71.71
58471;BME280;44258;51.288;12.068;2023-01-27T06:08:15;101132.78;;;0.43;71.47
58471;BME280;44258;51.288;12.068;2023-01-27T06:10:42;101138.03;;;0.77;70.48
58471;BME280;44258;51.288;12.068;2023-01-27T06:13:09;101139.84;;;0.53;70.93
58471;BME280;44258;51.288;12.068;2023-01-27T06:15:35;101142.47;;;0.64;70.80
58471;BME280;44258;51.288;12.068;2023-01-27T06:18:03;101137.19;;;0.64;70.82
58471;BME280;44258;51.288;12.068;2023-01-27T06:20:29;101143.34;;;0.70;70.38
58471;BME280;44258;51.288;12.068;2023-01-27T06:22:56;101145.16;;;0.50;71.15
58471;BME280;44258;51.288;12.068;2023-01-27T06:25:23;101151.34;;;0.32;71.51
58471;BME280;44258;51.288;12.068;2023-01-27T06:27:52;101153.09;;;0.39;71.50
58471;BME280;44258;51.288;12.068;2023-01-27T06:30:19;101152.19;;;0.51;70.03
58471;BME280;44258;51.288;12.068;2023-01-27T06:32:48;101154.88;;;-0.07;72.19
58471;BME280;44258;51.288;12.068;2023-01-27T06:35:16;101161.03;;;-0.05;72.19
58471;BME280;44258;51.288;12.068;2023-01-27T06:37:43;101157.47;;;-0.31;73.96
58471;BME280;44258;51.288;12.068;2023-01-27T06:40:11;101152.22;;;0.08;72.28
58471;BME280;44258;51.288;12.068;2023-01-27T06:42:40;101154.81;;;-0.34;73.95
58471;BME280;44258;51.288;12.068;2023-01-27T06:45:07;101160.00;;;-0.71;75.59
58471;BME280;44258;51.288;12.068;2023-01-27T06:47:34;101165.38;;;-0.31;74.46
58471;BME280;44258;51.288;12.068;2023-01-27T06:50:00;101152.19;;;-0.24;74.09
58471;BME280;44258;51.288;12.068;2023-01-27T06:52:28;101157.50;;;-0.03;73.38
58471;BME280;44258;51.288;12.068;2023-01-27T06:54:55;101160.16;;;0.28;71.97
58471;BME280;44258;51.288;12.068;2023-01-27T06:57:22;101162.78;;;0.53;70.76
58471;BME280;44258;51.288;12.068;2023-01-27T06:59:48;101161.00;;;0.47;70.70
58471;BME280;44258;51.288;12.068;2023-01-27T07:02:15;101166.31;;;0.50;70.62
58471;BME280;44258;51.288;12.068;2023-01-27T07:04:41;101169.00;;;0.15;71.55
58471;BME280;44258;51.288;12.068;2023-01-27T07:07:08;101165.41;;;0.53;70.57
58471;BME280;44258;51.288;12.068;2023-01-27T07:09:36;101166.31;;;0.44;70.36
58471;BME280;44258;51.288;12.068;2023-01-27T07:12:03;101170.69;;;0.68;69.94
58471;BME280;44258;51.288;12.068;2023-01-27T07:14:30;101179.50;;;0.82;69.61
58471;BME280;44258;51.288;12.068;2023-01-27T07:16:56;101177.72;;;0.75;69.75
58471;BME280;44258;51.288;12.068;2023-01-27T07:19:23;101180.44;;;0.34;70.65
58471;BME280;44258;51.288;12.068;2023-01-27T07:21:49;101186.59;;;0.33;70.98
58471;BME280;44258;51.288;12.068;2023-01-27T07:24:16;101183.84;;;-0.49;74.24
58471;BME280;44258;51.288;12.068;2023-01-27T07:26:44;101192.72;;;-0.30;74.22
58471;BME280;44258;51.288;12.068;2023-01-27T07:29:13;101189.06;;;-0.66;75.53
58471;BME280;44258;51.288;12.068;2023-01-27T07:31:40;101186.41;;;-0.72;75.97
58471;BME280;44258;51.288;12.068;2023-01-27T07:34:06;101186.53;;;-0.44;75.34
58471;BME280;44258;51.288;12.068;2023-01-27T07:36:33;101192.72;;;-0.21;74.56
58471;BME280;44258;51.288;12.068;2023-01-27T07:39:00;101196.28;;;0.24;72.59
58471;BME280;44258;51.288;12.068;2023-01-27T07:41:29;101194.53;;;0.11;72.30
58471;BME280;44258;51.288;12.068;2023-01-27T07:43:57;101188.38;;;0.24;72.24
58471;BME280;44258;51.288;12.068;2023-01-27T07:46:24;101196.31;;;0.20;72.07
58471;BME280;44258;51.288;12.068;2023-01-27T07:48:51;101200.69;;;0.41;71.52
58471;BME280;44258;51.288;12.068;2023-01-27T07:51:17;101203.34;;;0.48;71.30
58471;BME280;44258;51.288;12.068;2023-01-27T07:53:44;101199.84;;;0.25;72.17
58471;BME280;44258;51.288;12.068;2023-01-27T07:56:10;101201.59;;;0.47;71.41
58471;BME280;44258;51.288;12.068;2023-01-27T07:58:37;101208.63;;;0.53;71.55
58471;BME280;44258;51.288;12.068;2023-01-27T08:01:06;101208.63;;;0.73;70.96
58471;BME280;44258;51.288;12.068;2023-01-27T08:03:33;101217.44;;;0.92;70.79
58471;BME280;44258;51.288;12.068;2023-01-27T08:06:03;101210.34;;;0.92;70.54
58471;BME280;44258;51.288;12.068;2023-01-27T08:08:31;101217.38;;;1.10;69.81
58471;BME280;44258;51.288;12.068;2023-01-27T08:10:58;101220.09;;;0.86;70.32
58471;BME280;44258;51.288;12.068;2023-01-27T08:13:25;101217.38;;;1.00;70.01
58471;BME280;44258;51.288;12.068;2023-01-27T08:15:55;101218.25;;;1.08;70.02
58471;BME280;44258;51.288;12.068;2023-01-27T08:18:23;101221.81;;;0.99;69.89
58471;BME280;44258;51.288;12.068;2023-01-27T08:20:50;101225.31;;;1.10;70.41
58471;BME280;44258;51.288;12.068;2023-01-27T08:23:18;101224.41;;;1.21;69.86
58471;BME280;44258;51.288;12.068;2023-01-27T08:25:48;101231.44;;;1.31;69.77
58471;BME280;44258;51.288;12.068;2023-01-27T08:28:15;101230.59;;;1.20;69.78
58471;BME280;44258;51.288;12.068;2023-01-27T08:30:45;101229.63;;;1.38;69.39
58471;BME280;44258;51.288;12.068;2023-01-27T08:33:12;101228.72;;;1.49;69.07
58471;BME280;44258;51.288;12.068;2023-01-27T08:35:40;101235.75;;;1.52;68.46
58471;BME280;44258;51.288;12.068;2023-01-27T08:38:09;101233.13;;;1.44;68.82
58471;BME280;44258;51.288;12.068;2023-01-27T08:40:40;101230.50;;;1.40;69.21
58471;BME280;44258;51.288;12.068;2023-01-27T08:43:07;101230.50;;;1.47;69.21
58471;BME280;44258;51.288;12.068;2023-01-27T08:45:35;101227.88;;;1.41;69.33
58471;BME280;44258;51.288;12.068;2023-01-27T08:48:03;101233.09;;;1.57;69.08
58471;BME280;44258;51.288;12.068;2023-01-27T08:50:31;101234.03;;;1.45;69.25
58471;BME280;44258;51.288;12.068;2023-01-27T08:52:59;101235.00;;;1.16;70.20
58471;BME280;44258;51.288;12.068;2023-01-27T08:55:29;101236.72;;;1.34;69.76
58471;BME280;44258;51.288;12.068;2023-01-27T08:57:58;101247.28;;;1.45;69.82
58471;BME280;44258;51.288;12.068;2023-01-27T09:00:25;101246.41;;;1.37;69.94
58471;BME280;44258;51.288;12.068;2023-01-27T09:02:52;101247.22;;;1.60;69.43
58471;BME280;44258;51.288;12.068;2023-01-27T09:05:19;101248.97;;;1.66;69.27
58471;BME280;44258;51.288;12.068;2023-01-27T09:07:46;101247.16;;;1.72;69.46
58471;BME280;44258;51.288;12.068;2023-01-27T09:10:15;101248.13;;;1.59;69.46
58471;BME280;44258;51.288;12.068;2023-01-27T09:12:43;101254.31;;;1.54;69.78
58471;BME280;44258;51.288;12.068;2023-01-27T09:15:10;101256.13;;;1.45;70.03
58471;BME280;44258;51.288;12.068;2023-01-27T09:17:37;101255.16;;;1.62;69.70
58471;BME280;44258;51.288;12.068;2023-01-27T09:20:05;101249.06;;;1.49;70.15
58471;BME280;44258;51.288;12.068;2023-01-27T09:22:31;101249.91;;;1.56;69.56
58471;BME280;44258;51.288;12.068;2023-01-27T09:24:58;101252.59;;;1.43;70.21
58471;BME280;44258;51.288;12.068;2023-01-27T09:27:26;101245.56;;;1.22;71.31
58471;BME280;44258;51.288;12.068;2023-01-27T09:29:52;101245.50;;;1.44;70.69
58471;BME280;44258;51.288;12.068;2023-01-27T09:32:18;101249.16;;;1.17;71.66
58471;BME280;44258;51.288;12.068;2023-01-27T09:34:45;101256.13;;;1.41;71.21
58471;BME280;44258;51.288;12.068;2023-01-27T09:37:12;101249.06;;;1.40;71.21
58471;BME280;44258;51.288;12.068;2023-01-27T09:39:41;101254.34;;;1.47;71.12
58471;BME280;44258;51.288;12.068;2023-01-27T09:42:32;101252.69;;;1.09;72.78
58471;BME280;44258;51.288;12.068;2023-01-27T09:45:26;101257.13;;;0.98;73.35
58471;BME280;44258;51.288;12.068;2023-01-27T09:48:06;101255.38;;;0.94;73.39
58471;BME280;44258;51.288;12.068;2023-01-27T09:50:41;101257.97;;;1.16;72.75
58471;BME280;44258;51.288;12.068;2023-01-27T09:53:28;101257.97;;;1.14;73.02
58471;BME280;44258;51.288;12.068;2023-01-27T09:56:02;101258.84;;;1.21;72.59
58471;BME280;44258;51.288;12.068;2023-01-27T09:58:44;101257.09;;;1.07;73.35
58471;BME280;44258;51.288;12.068;2023-01-27T10:01:20;101255.25;;;1.34;72.77
58471;BME280;44258;51.288;12.068;2023-01-27T10:04:04;101257.06;;;1.24;73.17
58471;BME280;44258;51.288;12.068;2023-01-27T10:06:47;101257.00;;;1.37;73.21
58471;BME280;44258;51.288;12.068;2023-01-27T10:09:45;101254.50;;;0.98;74.10
58471;BME280;44258;51.288;12.068;2023-01-27T10:12:28;101256.22;;;1.05;74.12
58471;BME280;44258;51.288;12.068;2023-01-27T10:15:08;101253.53;;;1.27;72.79
58471;BME280;44258;51.288;12.068;2023-01-27T10:17:45;101258.91;;;0.81;75.44
58471;BME280;44258;51.288;12.068;2023-01-27T10:20:23;101258.03;;;0.85;75.30
58471;BME280;44258;51.288;12.068;2023-01-27T10:23:02;101262.44;;;0.84;75.38
58471;BME280;44258;51.288;12.068;2023-01-27T10:25:42;101270.38;;;0.70;75.60
58471;BME280;44258;51.288;12.068;2023-01-27T10:28:19;101265.97;;;0.79;75.43
58471;BME280;44258;51.288;12.068;2023-01-27T10:30:50;101261.56;;;0.79;75.69
58471;BME280;44258;51.288;12.068;2023-01-27T10:33:24;101266.88;;;0.84;75.53
58471;BME280;44258;51.288;12.068;2023-01-27T10:35:58;101273.00;;;0.15;78.27
58471;BME280;44258;51.288;12.068;2023-01-27T10:38:34;101274.78;;;0.59;76.91
58471;BME280;44258;51.288;12.068;2023-01-27T10:41:11;101273.81;;;-0.06;80.26
58471;BME280;44258;51.288;12.068;2023-01-27T10:43:48;101271.22;;;0.16;79.84
58471;BME280;44258;51.288;12.068;2023-01-27T10:46:21;101272.09;;;-0.01;80.38
58471;BME280;44258;51.288;12.068;2023-01-27T10:48:55;101277.44;;;0.68;77.54
58471;BME280;44258;51.288;12.068;2023-01-27T10:51:27;101274.75;;;1.11;75.92
58471;BME280;44258;51.288;12.068;2023-01-27T10:54:00;101266.84;;;0.90;75.82
58471;BME280;44258;51.288;12.068;2023-01-27T10:56:33;101269.50;;;0.67;77.46
58471;BME280;44258;51.288;12.068;2023-01-27T10:59:05;101268.63;;;0.94;76.06
58471;BME280;44258;51.288;12.068;2023-01-27T11:01:39;101266.84;;;0.59;78.12
58471;BME280;44258;51.288;12.068;2023-01-27T11:04:12;101263.34;;;0.68;78.52
58471;BME280;44258;51.288;12.068;2023-01-27T11:06:41;101258.03;;;0.92;77.23
58471;BME280;44258;51.288;12.068;2023-01-27T11:09:16;101260.66;;;0.89;77.17
58471;BME280;44258;51.288;12.068;2023-01-27T11:11:49;101255.38;;;0.88;77.56
58471;BME280;44258;51.288;12.068;2023-01-27T11:14:24;101253.59;;;0.93;77.43
58471;BME280;44258;51.288;12.068;2023-01-27T11:16:59;101250.97;;;0.75;78.92
58471;BME280;44258;51.288;12.068;2023-01-27T11:19:35;101249.16;;;1.07;77.52
58471;BME280;44258;51.288;12.068;2023-01-27T11:22:05;101250.06;;;0.76;78.80
58471;BME280;44258;51.288;12.068;2023-01-27T11:24:43;101250.91;;;1.04;77.92
58471;BME280;44258;51.288;12.068;2023-01-27T11:27:19;101246.56;;;0.75;78.94
58471;BME280;44258;51.288;12.068;2023-01-27T11:29:53;101247.44;;;0.91;78.17
58471;BME280;44258;51.288;12.068;2023-01-27T11:32:35;101245.63;;;0.99;78.23
58471;BME280;44258;51.288;12.068;2023-01-27T11:35:07;101250.06;;;0.83;78.63
58471;BME280;44258;51.288;12.068;2023-01-27T11:37:36;101245.69;;;0.33;80.54
58471;BME280;44258;51.288;12.068;2023-01-27T11:40:12;101244.78;;;0.85;79.22
58471;BME280;44258;51.288;12.068;2023-01-27T11:42:39;101244.78;;;0.89;78.71
58471;BME280;44258;51.288;12.068;2023-01-27T11:45:12;101244.78;;;0.57;79.82
58471;BME280;44258;51.288;12.068;2023-01-27T11:47:42;101236.88;;;0.19;79.94
58471;BME280;44258;51.288;12.068;2023-01-27T11:50:13;101240.38;;;0.82;79.57
58471;BME280;44258;51.288;12.068;2023-01-27T11:52:41;101230.63;;;0.94;79.21
58471;BME280;44258;51.288;12.068;2023-01-27T11:55:15;101227.16;;;0.67;79.77
58471;BME280;44258;51.288;12.068;2023-01-27T11:57:46;101227.97;;;1.10;78.42
58471;BME280;44258;51.288;12.068;2023-01-27T12:00:20;101220.84;;;1.29;76.98
58471;BME280;44258;51.288;12.068;2023-01-27T12:02:57;101218.22;;;1.17;77.18
58471;BME280;44258;51.288;12.068;2023-01-27T12:05:29;101233.25;;;1.17;77.21
58471;BME280;44258;51.288;12.068;2023-01-27T12:07:58;101228.78;;;1.28;77.34
58471;BME280;44258;51.288;12.068;2023-01-27T12:10:28;101227.13;;;0.95;78.53
58471;BME280;44258;51.288;12.068;2023-01-27T12:12:57;101231.50;;;1.13;77.17
58471;BME280;44258;51.288;12.068;2023-01-27T12:15:25;101219.19;;;0.79;78.83
58471;BME280;44258;51.288;12.068;2023-01-27T12:17:57;101228.91;;;0.83;78.46
58471;BME280;44258;51.288;12.068;2023-01-27T12:20:31;101225.34;;;1.00;78.00
58471;BME280;44258;51.288;12.068;2023-01-27T12:23:02;101229.69;;;1.22;77.64
58471;BME280;44258;51.288;12.068;2023-01-27T12:25:40;101231.56;;;0.63;79.79
58471;BME280;44258;51.288;12.068;2023-01-27T12:28:20;101235.88;;;1.18;77.55
58471;BME280;44258;51.288;12.068;2023-01-27T12:30:49;101222.59;;;1.26;77.21
58471;BME280;44258;51.288;12.068;2023-01-27T12:33:23;101228.75;;;1.39;76.53
58471;BME280;44258;51.288;12.068;2023-01-27T12:35:56;101226.28;;;0.16;81.00
58471;BME280;44258;51.288;12.068;2023-01-27T12:38:26;101222.75;;;0.86;79.31
58471;BME280;44258;51.288;12.068;2023-01-27T12:40:58;101218.31;;;0.63;80.18
58471;BME280;44258;51.288;12.068;2023-01-27T12:43:26;101216.50;;;0.99;79.03
58471;BME280;44258;51.288;12.068;2023-01-27T12:46:05;101218.31;;;0.77;80.76
58471;BME280;44258;51.288;12.068;2023-01-27T12:48:46;101220.09;;;0.64;80.91
58471;BME280;44258;51.288;12.068;2023-01-27T12:51:16;101217.44;;;0.92;80.34
58471;BME280;44258;51.288;12.068;2023-01-27T12:53:44;101213.78;;;1.25;79.07
58471;BME280;44258;51.288;12.068;2023-01-27T12:56:12;101208.56;;;1.05;79.48
58471;BME280;44258;51.288;12.068;2023-01-27T12:58:42;101205.09;;;0.72;80.37
58471;BME280;44258;51.288;12.068;2023-01-27T13:01:26;101209.53;;;0.60;81.44
58471;BME280;44258;51.288;12.068;2023-01-27T13:04:01;101212.09;;;0.95;80.13